aviador You're here:

CZUM Decoded Metar

CHURCHILL FALLS in NL, CANADA
Report Time2018-05-21 20:05:00
UTC Time2018-05-21 20:33:43
Flight Rules mvfr MVFR
Wind300° at 16 Gusting to 23 kt
W.Decomp.*RWY 31: 15.7 kt HW 3.3 kt RCW
W.Rank300° ranks 3
Current wind is above 300° avg. (10.3)
Visibility9656 m
Phenomena:N/A
Clouds:Scattered 022 Hf
Broken 028 Hf
Expected CloudBase > 1,600 ft AGL from Temp-Dew spread
Ceiling2,800 ft
Temp02°C (ISA -10)
Dew Point-2°C (75% RH)
AAT-6.0°C
QNH1006 hPa
Density Alt531 ft
Elevation1,444 ft
Report Wrong Elevation
Raw Report
SPECI CZUM 212005Z AUTO 30016G23KT 6SM -UP SCT022 BKN028 02/M02 A2970
RMK SLP083=

Extra information for CZUM:More info

Metar Taf Metar & Taf Last 4 Metars F.Rules Stats Wind Profile Meteogram Temp Stats Airport Information Weather charts Add Link Nearby VenuesMetar ALERT Operation Metar Decoded Social comments